createdAt,value
2019-02-12T00:00:23.009Z,23.38
2019-02-12T00:02:52.341Z,20.05
2019-02-12T00:05:21.889Z,24.20
2019-02-12T00:07:51.174Z,18.27
2019-02-12T00:10:20.712Z,19.37
2019-02-12T00:12:50.013Z,17.35
2019-02-12T00:15:19.321Z,22.50
2019-02-12T00:17:48.619Z,17.30
2019-02-12T00:20:17.948Z,25.08
2019-02-12T00:22:47.224Z,20.57
2019-02-12T00:25:16.504Z,19.02
2019-02-12T00:27:45.781Z,19.95
2019-02-12T00:30:15.054Z,23.05
2019-02-12T00:32:44.337Z,14.70
2019-02-12T00:35:13.902Z,21.57
2019-02-12T00:37:43.191Z,26.12
2019-02-12T00:40:12.533Z,21.05
2019-02-12T00:42:41.808Z,26.40
2019-02-12T00:45:11.545Z,22.10
2019-02-12T00:47:40.827Z,21.45
2019-02-12T00:50:11.310Z,24.98
2019-02-12T00:52:40.849Z,29.80
2019-02-12T00:55:10.728Z,19.95
2019-02-12T00:57:40.487Z,25.90
2019-02-12T01:00:12.897Z,28.47
2019-02-12T01:02:43.566Z,19.98
2019-02-12T01:05:14.353Z,24.18
2019-02-12T01:07:43.861Z,22.22
2019-02-12T01:10:13.488Z,20.20
2019-02-12T01:12:45.808Z,13.38
2019-02-12T01:15:14.937Z,23.02
2019-02-12T01:17:45.560Z,18.07
2019-02-12T01:20:15.161Z,20.43
2019-02-12T01:22:44.770Z,23.25
2019-02-12T01:25:14.518Z,20.40
2019-02-12T01:27:44.174Z,17.85
2019-02-12T01:30:16.734Z,25.80
2019-02-12T01:32:46.448Z,28.95
2019-02-12T01:35:15.966Z,16.05
2019-02-12T01:37:45.261Z,20.65
2019-02-12T01:40:14.533Z,21.35
2019-02-12T01:42:43.825Z,21.25
2019-02-12T01:45:13.586Z,20.70
2019-02-12T01:47:42.875Z,23.05
2019-02-12T01:50:12.981Z,24.87
2019-02-12T01:52:42.262Z,19.67
2019-02-12T01:55:11.605Z,24.85
2019-02-12T01:57:40.882Z,22.80
2019-02-12T02:00:12.827Z,21.37
2019-02-12T02:02:42.659Z,22.95
2019-02-12T02:05:11.925Z,20.65
2019-02-12T02:07:41.217Z,32.65
2019-02-12T02:10:16.183Z,24.85
2019-02-12T02:12:45.460Z,22.30
2019-02-12T02:15:15.379Z,24.60
2019-02-12T02:17:44.663Z,24.35
2019-02-12T02:20:14.979Z,20.57
2019-02-12T02:22:44.263Z,30.37
2019-02-12T02:25:14.301Z,24.95
2019-02-12T02:27:43.988Z,26.35
2019-02-12T02:30:15.021Z,23.18
2019-02-12T02:32:44.736Z,25.37
2019-02-12T02:35:14.072Z,27.40
2019-02-12T02:37:44.666Z,32.55
2019-02-12T02:40:14.296Z,24.27
2019-02-12T02:42:43.882Z,23.22
2019-02-12T02:45:13.916Z,31.30
2019-02-12T02:47:43.251Z,28.80
2019-02-12T02:50:12.517Z,31.87
2019-02-12T02:52:41.829Z,28.07
2019-02-12T02:55:11.409Z,28.40
2019-02-12T02:57:40.698Z,31.90
2019-02-12T03:00:11.958Z,26.57
2019-02-12T03:02:44.201Z,29.87
2019-02-12T03:05:13.491Z,25.15
2019-02-12T03:07:43.053Z,26.95
2019-02-12T03:10:12.418Z,26.57
2019-02-12T03:12:41.950Z,38.85
2019-02-12T03:15:11.494Z,30.68
2019-02-12T03:17:41.065Z,31.48
2019-02-12T03:20:11.884Z,30.23
2019-02-12T03:22:41.169Z,31.77
2019-02-12T03:25:10.821Z,35.78
2019-02-12T03:27:40.120Z,30.72
2019-02-12T03:30:12.935Z,26.62
2019-02-12T03:32:42.408Z,29.35
2019-02-12T03:35:12.027Z,36.17
2019-02-12T03:37:41.611Z,33.00
2019-02-12T03:40:11.649Z,28.60
2019-02-12T03:42:41.239Z,38.60
2019-02-12T03:45:12.688Z,45.73
2019-02-12T03:47:41.965Z,30.68
2019-02-12T03:50:12.192Z,28.55
2019-02-12T03:52:41.563Z,40.92
2019-02-12T03:55:14.590Z,32.15
2019-02-12T03:57:43.871Z,32.73
2019-02-12T04:00:15.001Z,36.00
2019-02-12T04:03:01.271Z,46.18
2019-02-12T04:05:30.606Z,48.78
2019-02-12T04:08:00.163Z,40.63
2019-02-12T04:10:29.803Z,55.30
2019-02-12T04:12:59.297Z,50.75
2019-02-12T04:15:28.583Z,59.75
2019-02-12T04:17:58.171Z,51.77
2019-02-12T04:20:27.455Z,54.13
2019-02-12T04:22:56.988Z,55.83
2019-02-12T04:25:26.594Z,56.85
2019-02-12T04:27:56.199Z,61.58
2019-02-12T04:30:25.739Z,55.50
2019-02-12T04:32:55.413Z,55.25
2019-02-12T04:35:24.701Z,51.20
2019-02-12T04:37:54.144Z,43.55
2019-02-12T04:40:23.733Z,52.13
2019-02-12T04:42:53.012Z,47.70
2019-02-12T04:45:22.303Z,40.90
2019-02-12T04:47:52.446Z,45.78
2019-02-12T04:50:21.729Z,41.10
2019-02-12T04:52:51.026Z,40.00
2019-02-12T04:55:20.303Z,34.75
2019-02-12T04:57:49.584Z,39.10
2019-02-12T05:00:19.387Z,36.48
2019-02-12T05:02:48.667Z,38.70
2019-02-12T05:05:17.949Z,42.05
2019-02-12T05:07:47.577Z,41.40
2019-02-12T05:10:20.202Z,38.45
2019-02-12T05:12:49.469Z,35.10
2019-02-12T05:15:18.770Z,36.35
2019-02-12T05:17:48.356Z,45.25
2019-02-12T05:20:17.644Z,42.55
2019-02-12T05:22:47.284Z,49.35
2019-02-12T05:25:16.697Z,48.87
2019-02-12T05:27:45.985Z,51.00
2019-02-12T05:30:15.441Z,57.53
2019-02-12T05:32:44.705Z,71.65
2019-02-12T05:35:14.283Z,68.97
2019-02-12T05:37:43.881Z,72.62
2019-02-12T05:40:13.500Z,64.25
2019-02-12T05:42:42.774Z,69.12
2019-02-12T05:45:13.331Z,70.25
2019-02-12T05:47:42.605Z,72.90
2019-02-12T05:50:17.279Z,67.97
2019-02-12T05:52:53.677Z,67.80
2019-02-12T05:55:17.819Z,65.37
2019-02-12T05:57:47.414Z,75.28
2019-02-12T06:00:19.693Z,78.02
2019-02-12T06:02:49.023Z,81.97
2019-02-12T06:05:29.760Z,80.53
2019-02-12T06:07:59.028Z,73.55
2019-02-12T06:10:28.330Z,78.65
2019-02-12T06:12:57.598Z,73.25
2019-02-12T06:15:26.897Z,78.45
2019-02-12T06:17:56.164Z,86.17
2019-02-12T06:20:25.449Z,80.45
2019-02-12T06:23:03.414Z,79.82
2019-02-12T06:25:26.679Z,76.60
2019-02-12T06:27:55.956Z,72.08
2019-02-12T06:30:26.204Z,65.65
2019-02-12T06:32:55.485Z,74.70
2019-02-12T06:35:24.766Z,65.60
2019-02-12T06:37:55.271Z,73.42
2019-02-12T06:40:24.558Z,69.97
2019-02-12T06:42:53.830Z,87.88
2019-02-12T06:45:23.119Z,83.72
2019-02-12T06:47:52.393Z,76.77
2019-02-12T06:50:21.980Z,78.00
2019-02-12T06:52:51.253Z,75.42
2019-02-12T06:55:20.785Z,92.85
2019-02-12T06:57:50.073Z,77.97
2019-02-12T07:00:19.360Z,72.15
2019-02-12T07:03:11.007Z,95.67
2019-02-12T07:06:07.080Z,98.87
2019-02-12T07:08:51.170Z,86.25
2019-02-12T07:11:40.094Z,94.87
2019-02-12T07:14:33.923Z,89.42
2019-02-12T07:17:08.977Z,90.22
2019-02-12T07:19:56.459Z,74.40
2019-02-12T07:22:40.934Z,70.12
2019-02-12T07:25:16.282Z,101.42
2019-02-12T07:28:03.616Z,82.53
2019-02-12T07:30:41.147Z,86.02
2019-02-12T07:33:13.782Z,77.70
2019-02-12T07:36:00.831Z,80.97
2019-02-12T07:38:33.181Z,79.90
2019-02-12T07:41:39.330Z,72.32
2019-02-12T07:44:29.889Z,81.32
2019-02-12T07:47:21.578Z,68.92
2019-02-12T07:50:10.518Z,77.58
2019-02-12T07:52:42.897Z,68.25
2019-02-12T07:55:30.278Z,65.32
2019-02-12T07:58:24.763Z,61.70
2019-02-12T08:01:03.059Z,62.78
2019-02-12T08:03:55.309Z,66.70
2019-02-12T08:06:44.333Z,62.83
2019-02-12T08:09:28.331Z,49.45
2019-02-12T08:12:19.165Z,50.17
2019-02-12T08:15:06.727Z,51.15
2019-02-12T08:17:54.637Z,47.98
2019-02-12T08:20:26.989Z,55.43
2019-02-12T08:22:59.345Z,51.02
2019-02-12T08:25:37.559Z,54.23
2019-02-12T08:28:21.637Z,57.60
2019-02-12T08:31:08.695Z,53.83
2019-02-12T08:33:46.971Z,47.83
2019-02-12T08:36:19.343Z,54.95
2019-02-12T08:38:54.249Z,55.50
2019-02-12T08:41:44.271Z,52.45
2019-02-12T08:44:22.338Z,54.20
2019-02-12T08:47:03.239Z,19.50
2019-02-12T08:49:44.538Z,38.92
2019-02-12T08:52:26.138Z,33.90
2019-02-12T08:55:21.419Z,31.55
2019-02-12T08:58:08.956Z,27.67
2019-02-12T09:00:50.190Z,31.30
2019-02-12T09:03:43.803Z,43.87
2019-02-12T09:06:32.274Z,34.85
2019-02-12T09:09:20.985Z,39.10
2019-02-12T09:12:11.287Z,48.50
2019-02-12T09:14:58.725Z,40.75
2019-02-12T09:17:40.301Z,41.85
2019-02-12T09:20:32.398Z,42.95
2019-02-12T09:23:25.479Z,38.63
2019-02-12T09:26:09.660Z,51.15
2019-02-12T09:28:59.935Z,46.45
2019-02-12T09:31:53.542Z,47.50
2019-02-12T09:34:45.346Z,39.23
2019-02-12T09:37:20.795Z,54.03
2019-02-12T09:40:19.088Z,48.10
2019-02-12T09:42:57.745Z,40.55
2019-02-12T09:45:48.165Z,49.53
2019-02-12T09:48:20.533Z,53.35
2019-02-12T09:50:52.958Z,51.35
2019-02-12T09:53:37.574Z,51.55
2019-02-12T09:56:34.236Z,52.53
2019-02-12T09:59:06.583Z,54.75
2019-02-12T10:01:56.735Z,51.13
2019-02-12T10:04:29.089Z,52.93
2019-02-12T10:07:13.186Z,49.70
2019-02-12T10:09:51.721Z,43.08
2019-02-12T10:12:32.700Z,54.33
2019-02-12T10:15:07.790Z,49.03
2019-02-12T10:17:49.443Z,48.35
2019-02-12T10:20:38.402Z,53.92
2019-02-12T10:23:18.987Z,54.08
2019-02-12T10:25:50.527Z,63.17
2019-02-12T10:28:52.078Z,59.42
2019-02-12T10:31:21.434Z,53.92
2019-02-12T10:33:50.717Z,62.55
2019-02-12T10:36:20.498Z,68.57
2019-02-12T10:38:49.796Z,52.30
2019-02-12T10:41:19.069Z,57.62
2019-02-12T10:43:48.707Z,51.37
2019-02-12T10:46:18.309Z,53.42
2019-02-12T10:48:47.922Z,56.18
2019-02-12T10:51:17.531Z,54.85
2019-02-12T10:53:47.141Z,48.63
2019-02-12T10:56:16.738Z,50.23
2019-02-12T10:58:46.351Z,56.88
2019-02-12T11:01:15.969Z,51.42
2019-02-12T11:03:45.566Z,38.02
2019-02-12T11:06:14.858Z,40.65
2019-02-12T11:08:44.385Z,43.90
2019-02-12T11:11:13.675Z,48.40
2019-02-12T11:13:43.285Z,59.88
2019-02-12T11:16:12.567Z,53.78
2019-02-12T11:18:41.841Z,55.70
2019-02-12T11:21:12.355Z,63.00
2019-02-12T11:23:42.129Z,55.88
2019-02-12T11:26:11.417Z,59.08
2019-02-12T11:28:40.694Z,60.75
2019-02-12T11:31:09.967Z,53.35
2019-02-12T11:33:39.258Z,55.40
2019-02-12T11:36:08.543Z,57.85
2019-02-12T11:38:37.830Z,49.95
2019-02-12T11:41:07.117Z,54.38
2019-02-12T11:43:36.407Z,50.55
2019-02-12T11:46:05.696Z,45.58
2019-02-12T11:48:34.989Z,53.00
2019-02-12T11:51:04.553Z,46.15
2019-02-12T11:53:34.142Z,42.48
2019-02-12T11:56:03.432Z,43.45
2019-02-12T11:58:32.700Z,44.80
2019-02-12T12:01:02.455Z,43.60
2019-02-12T12:03:31.741Z,48.60
2019-02-12T12:06:01.363Z,45.92
2019-02-12T12:08:30.729Z,39.53
2019-02-12T12:11:00.001Z,15.85
2019-02-12T12:13:29.298Z,43.63
2019-02-12T12:15:58.581Z,42.00
2019-02-12T12:18:27.883Z,30.43
2019-02-12T12:20:57.162Z,33.63
2019-02-12T12:23:26.455Z,31.45
2019-02-12T12:25:55.743Z,38.35
2019-02-12T12:28:25.021Z,34.98
2019-02-12T12:30:54.590Z,36.00
2019-02-12T12:33:23.879Z,29.23
2019-02-12T12:35:53.176Z,25.35
2019-02-12T12:38:22.460Z,37.80
2019-02-12T12:40:51.979Z,41.18
2019-02-12T12:43:21.270Z,32.60
2019-02-12T12:45:50.891Z,35.68
2019-02-12T12:48:20.187Z,28.92
2019-02-12T12:50:49.478Z,30.95
2019-02-12T12:53:18.767Z,28.50
2019-02-12T12:55:48.069Z,23.73
2019-02-12T12:58:18.329Z,26.75
2019-02-12T13:00:47.667Z,28.73
2019-02-12T13:03:17.221Z,24.57
2019-02-12T13:05:46.826Z,20.70
2019-02-12T13:08:16.119Z,46.55
2019-02-12T13:10:45.395Z,16.95
2019-02-12T13:13:14.687Z,28.52
2019-02-12T13:15:43.965Z,25.08
2019-02-12T13:18:13.245Z,23.95
2019-02-12T13:20:42.522Z,21.93
2019-02-12T13:23:11.802Z,22.70
2019-02-12T13:25:41.097Z,22.37
2019-02-12T13:28:10.643Z,25.90
2019-02-12T13:30:40.245Z,32.28
2019-02-12T13:33:09.528Z,24.82
2019-02-12T13:35:38.805Z,31.42
2019-02-12T13:38:08.112Z,36.33
2019-02-12T13:40:37.425Z,37.33
2019-02-12T13:43:06.761Z,23.10
2019-02-12T13:45:36.467Z,27.42
2019-02-12T13:48:05.747Z,27.02
2019-02-12T13:50:35.265Z,20.72
2019-02-12T13:53:04.884Z,24.25
2019-02-12T13:55:34.190Z,19.65
2019-02-12T13:58:03.448Z,24.02
2019-02-12T14:00:32.737Z,26.80
2019-02-12T14:03:02.019Z,23.62
2019-02-12T14:05:31.329Z,28.52
2019-02-12T14:08:00.626Z,29.50
2019-02-12T14:10:30.192Z,26.57
2019-02-12T14:12:59.486Z,27.25
2019-02-12T14:15:29.103Z,22.93
2019-02-12T14:17:58.413Z,23.32
2019-02-12T14:20:27.692Z,24.75
2019-02-12T14:22:56.965Z,16.30
2019-02-12T14:25:26.507Z,13.15
2019-02-12T14:27:55.799Z,22.62
2019-02-12T14:30:25.459Z,31.70
2019-02-12T14:32:54.777Z,25.72
2019-02-12T14:35:24.050Z,21.42
2019-02-12T14:37:53.627Z,18.40
2019-02-12T14:40:23.226Z,16.23
2019-02-12T14:42:52.496Z,15.58
2019-02-12T14:45:21.787Z,18.92
2019-02-12T14:47:51.062Z,14.53
2019-02-12T14:50:21.089Z,15.28
2019-02-12T14:52:50.401Z,20.45
2019-02-12T14:55:19.687Z,15.38
2019-02-12T14:57:48.969Z,15.30
2019-02-12T15:00:19.681Z,22.73
2019-02-12T15:02:48.969Z,15.45
2019-02-12T15:05:18.250Z,14.93
2019-02-12T15:07:48.820Z,15.60
2019-02-12T15:10:18.103Z,17.52
2019-02-12T15:12:47.381Z,23.92
2019-02-12T15:15:16.665Z,14.80
2019-02-12T15:17:45.933Z,22.75
2019-02-12T15:20:15.534Z,16.07
2019-02-12T15:22:44.797Z,16.77
2019-02-12T15:25:14.121Z,15.83
2019-02-12T15:27:43.415Z,25.30
2019-02-12T15:30:19.791Z,28.50
2019-02-12T15:32:49.137Z,43.65
2019-02-12T15:35:18.708Z,43.45
2019-02-12T15:37:47.985Z,22.32
2019-02-12T15:40:21.021Z,23.83
2019-02-12T15:42:50.305Z,12.30
2019-02-12T15:45:23.691Z,12.53
2019-02-12T15:47:53.299Z,17.82
2019-02-12T15:50:22.607Z,18.23
2019-02-12T15:52:52.201Z,11.97
2019-02-12T15:55:21.816Z,11.50
2019-02-12T15:57:51.094Z,12.82
2019-02-12T16:00:21.254Z,9.58
2019-02-12T16:02:50.848Z,18.57
2019-02-12T16:05:21.475Z,17.27
2019-02-12T16:07:50.736Z,19.07
2019-02-12T16:10:21.002Z,10.00
2019-02-12T16:12:51.498Z,15.68
2019-02-12T16:15:22.473Z,16.50
2019-02-12T16:17:52.123Z,14.45
2019-02-12T16:20:21.678Z,14.58
2019-02-12T16:22:51.298Z,14.13
2019-02-12T16:25:20.574Z,8.40
2019-02-12T16:27:49.854Z,15.15
2019-02-12T16:30:20.688Z,17.00
2019-02-12T16:32:49.969Z,17.05
2019-02-12T16:35:19.358Z,16.15
2019-02-12T16:37:48.933Z,13.53
2019-02-12T16:40:18.391Z,11.38
2019-02-12T16:42:48.061Z,13.78
2019-02-12T16:45:26.244Z,19.65
2019-02-12T16:47:55.695Z,20.32
2019-02-12T16:50:25.293Z,29.70
2019-02-12T16:52:55.068Z,20.48
2019-02-12T16:55:24.842Z,23.30
2019-02-12T16:57:54.121Z,14.68
2019-02-12T17:00:23.402Z,15.50
2019-02-12T17:02:53.002Z,14.68
2019-02-12T17:05:22.299Z,14.40
2019-02-12T17:07:51.801Z,12.00
2019-02-12T17:10:21.087Z,19.17
2019-02-12T17:12:50.386Z,9.93
2019-02-12T17:15:19.666Z,14.43
2019-02-12T17:17:48.936Z,15.50
2019-02-12T17:20:20.235Z,11.15
2019-02-12T17:22:49.775Z,13.18
2019-02-12T17:25:19.046Z,18.00
2019-02-12T17:27:48.334Z,28.98
2019-02-12T17:30:18.701Z,20.62
2019-02-12T17:32:48.949Z,21.87
2019-02-12T17:35:18.236Z,17.00
2019-02-12T17:37:47.509Z,17.85
2019-02-12T17:40:18.602Z,24.32
2019-02-12T17:42:48.175Z,27.73
2019-02-12T17:45:20.127Z,34.67
2019-02-12T17:47:49.782Z,32.45
2019-02-12T17:50:19.555Z,41.33
2019-02-12T17:52:48.842Z,32.05
2019-02-12T17:55:18.465Z,27.45
2019-02-12T17:57:47.741Z,31.40
2019-02-12T18:00:23.928Z,38.45
2019-02-12T18:02:53.305Z,30.92
2019-02-12T18:05:22.660Z,30.80
2019-02-12T18:07:51.945Z,36.23
2019-02-12T18:10:21.221Z,33.78
2019-02-12T18:12:50.506Z,31.10
2019-02-12T18:15:19.859Z,28.40
2019-02-12T18:17:49.449Z,31.70
2019-02-12T18:20:26.409Z,42.73
2019-02-12T18:22:50.285Z,32.63
2019-02-12T18:25:19.638Z,20.12
2019-02-12T18:27:49.147Z,21.02
2019-02-12T18:30:18.891Z,19.85
2019-02-12T18:32:48.443Z,17.07
2019-02-12T18:35:18.246Z,18.98
2019-02-12T18:37:47.550Z,22.20
2019-02-12T18:40:17.959Z,20.27
2019-02-12T18:42:47.242Z,23.80
2019-02-12T18:45:22.108Z,24.50
2019-02-12T18:47:51.424Z,28.07
2019-02-12T18:50:20.783Z,27.90
2019-02-12T18:52:50.073Z,23.07
2019-02-12T18:55:19.603Z,22.00
2019-02-12T18:57:48.983Z,26.60
2019-02-12T19:00:20.456Z,24.98
2019-02-12T19:02:49.736Z,33.85
2019-02-12T19:05:19.013Z,30.15
2019-02-12T19:07:48.290Z,30.37
2019-02-12T19:10:18.319Z,29.85
2019-02-12T19:12:47.886Z,24.37
2019-02-12T19:15:21.759Z,25.20
2019-02-12T19:18:00.149Z,33.95
2019-02-12T19:20:29.489Z,29.32
2019-02-12T19:22:59.128Z,26.07
2019-02-12T19:25:28.399Z,27.07
2019-02-12T19:27:57.683Z,22.93
2019-02-12T19:30:28.250Z,20.37
2019-02-12T19:32:57.863Z,18.55
2019-02-12T19:35:27.475Z,19.82
2019-02-12T19:37:56.765Z,17.73
2019-02-12T19:40:26.042Z,24.18
2019-02-12T19:42:55.348Z,20.23
2019-02-12T19:45:24.636Z,23.25
2019-02-12T19:47:53.927Z,22.15
2019-02-12T19:50:23.215Z,28.80
2019-02-12T19:52:52.499Z,23.98
2019-02-12T19:55:21.778Z,22.13
2019-02-12T19:57:51.075Z,19.82
2019-02-12T20:00:20.350Z,15.38
2019-02-12T20:02:50.792Z,17.05
2019-02-12T20:05:20.505Z,22.05
2019-02-12T20:07:50.651Z,17.55
2019-02-12T20:10:20.435Z,17.55
2019-02-12T20:12:49.727Z,20.57
2019-02-12T20:15:21.389Z,24.60
2019-02-12T20:17:50.661Z,21.42
2019-02-12T20:20:19.947Z,24.43
2019-02-12T20:22:49.217Z,20.95
2019-02-12T20:25:18.739Z,16.32
2019-02-12T20:27:48.032Z,17.37
2019-02-12T20:30:18.796Z,22.90
2019-02-12T20:32:48.343Z,20.82
2019-02-12T20:35:22.031Z,21.62
2019-02-12T20:37:51.614Z,17.12
2019-02-12T20:40:20.899Z,20.02
2019-02-12T20:42:50.415Z,23.57
2019-02-12T20:45:20.126Z,17.07
2019-02-12T20:47:49.464Z,20.48
2019-02-12T20:50:21.088Z,19.67
2019-02-12T20:52:50.451Z,17.57
2019-02-12T20:55:19.715Z,19.10
2019-02-12T20:57:49.257Z,19.45
2019-02-12T21:00:23.064Z,19.73
2019-02-12T21:02:52.583Z,15.32
2019-02-12T21:05:21.855Z,14.40
2019-02-12T21:07:51.462Z,20.62
2019-02-12T21:10:24.239Z,21.05
2019-02-12T21:12:53.583Z,16.12
2019-02-12T21:15:25.627Z,17.62
2019-02-12T21:17:54.921Z,17.65
2019-02-12T21:20:24.193Z,16.65
2019-02-12T21:22:53.918Z,23.00
2019-02-12T21:25:23.209Z,21.15
2019-02-12T21:27:52.501Z,17.37
2019-02-12T21:30:23.423Z,13.68
2019-02-12T21:32:52.972Z,18.23
2019-02-12T21:35:22.414Z,19.40
2019-02-12T21:37:51.726Z,14.73
2019-02-12T21:40:25.424Z,15.63
2019-02-12T21:42:54.719Z,18.40
2019-02-12T21:45:40.696Z,20.97
2019-02-12T21:48:09.993Z,18.30
2019-02-12T21:50:39.276Z,18.92
2019-02-12T21:53:08.557Z,19.82
2019-02-12T21:55:38.188Z,17.35
2019-02-12T21:58:07.783Z,18.20
2019-02-12T22:00:37.070Z,19.00
2019-02-12T22:03:06.424Z,16.17
2019-02-12T22:05:35.697Z,16.73
2019-02-12T22:08:05.127Z,13.68
2019-02-12T22:10:34.656Z,20.00
2019-02-12T22:13:03.925Z,17.92
2019-02-12T22:15:33.216Z,16.67
2019-02-12T22:18:02.530Z,17.15
2019-02-12T22:20:31.802Z,16.20
2019-02-12T22:23:01.917Z,19.85
2019-02-12T22:25:31.831Z,17.02
2019-02-12T22:28:02.476Z,19.35
2019-02-12T22:30:31.995Z,16.45
2019-02-12T22:33:01.576Z,17.02
2019-02-12T22:35:30.858Z,18.30
2019-02-12T22:38:00.130Z,14.98
2019-02-12T22:40:29.424Z,16.48
2019-02-12T22:42:58.697Z,21.62
2019-02-12T22:45:27.997Z,18.98
2019-02-12T22:47:57.283Z,15.55
2019-02-12T22:50:27.765Z,20.08
2019-02-12T22:52:57.056Z,14.93
2019-02-12T22:55:27.661Z,15.98
2019-02-12T22:57:56.947Z,16.25
2019-02-12T23:00:39.995Z,14.18
2019-02-12T23:03:09.511Z,14.05
2019-02-12T23:05:38.791Z,16.67
2019-02-12T23:08:08.064Z,15.18
2019-02-12T23:10:37.342Z,16.23
2019-02-12T23:13:06.855Z,15.98
2019-02-12T23:15:36.133Z,16.45
2019-02-12T23:18:05.480Z,17.15
2019-02-12T23:20:34.762Z,14.18
2019-02-12T23:23:04.041Z,15.60
2019-02-12T23:25:33.325Z,21.27
2019-02-12T23:28:02.617Z,16.45
2019-02-12T23:30:31.888Z,17.07
2019-02-12T23:33:01.165Z,16.67
2019-02-12T23:35:30.455Z,15.80
2019-02-12T23:37:59.726Z,15.88
2019-02-12T23:40:29.011Z,15.72
2019-02-12T23:42:58.291Z,18.20
2019-02-12T23:45:27.574Z,24.92
2019-02-12T23:47:56.849Z,17.52
2019-02-12T23:50:26.360Z,14.93
2019-02-12T23:52:55.894Z,14.30
2019-02-12T23:55:25.174Z,16.80
2019-02-12T23:57:54.458Z,14.07
